Time;durP1;ratioP1;P1;durP2;ratioP2;P2;SDS_P1;SDS_P2;PMS_P1;PMS_P2;Temp;Humidity;BMP_temperature;BMP_pressure;BME280_temperature;BME280_humidity;BME280_pressure;Samples;Min_cycle;Max_cycle;Signal;HPM_P1;HPM_P2
2022/12/22 03:26:50;;;;;;;16.30;11.60;;;5.70;99.90;;;;;;4965609;23;20264;-91
2022/12/22 03:29:17;;;;;;;12.10;10.18;;;5.60;99.90;;;;;;4956959;28;20202;-88
2022/12/22 03:31:44;;;;;;;11.40;10.30;;;5.60;99.90;;;;;;5128152;23;20246;-88
2022/12/22 03:34:12;;;;;;;9.82;8.82;;;5.50;99.90;;;;;;4960057;28;20234;-90
2022/12/22 03:36:38;;;;;;;8.48;7.53;;;5.50;99.90;;;;;;5237367;23;20221;-89
2022/12/22 03:39:06;;;;;;;18.50;10.65;;;5.40;99.90;;;;;;5320855;23;20242;-88
2022/12/22 03:46:56;;;;;;;13.55;10.15;;;5.30;99.90;;;;;;5261715;23;20654;-87
2022/12/22 03:49:25;;;;;;;10.50;8.55;;;5.10;99.90;;;;;;4941351;29;20220;-88
2022/12/22 03:51:52;;;;;;;10.23;8.82;;;5.20;99.90;;;;;;5105438;23;20231;-88
2022/12/22 03:54:21;;;;;;;12.75;10.88;;;5.20;99.90;;;;;;4947378;29;20224;-88
2022/12/22 03:56:49;;;;;;;10.07;8.10;;;6.10;99.90;;;;;;5032286;23;20295;-88
2022/12/22 03:59:17;;;;;;;16.52;11.20;;;5.30;99.90;;;;;;4951351;28;20264;-88
2022/12/22 04:01:49;;;;;;;10.35;8.45;;;5.50;99.90;;;;;;4940717;29;20192;-89
2022/12/22 04:04:19;;;;;;;10.63;9.15;;;5.60;99.90;;;;;;4940725;29;20216;-91
2022/12/22 04:06:46;;;;;;;15.45;11.88;;;5.60;99.90;;;;;;5910074;23;20921;-93
2022/12/22 04:09:13;;;;;;;11.43;9.77;;;5.80;99.90;;;;;;5316581;23;20238;-87
2022/12/22 04:14:27;;;;;;;14.48;11.60;;;6.00;99.90;;;;;;4957203;29;20242;-88
2022/12/22 04:17:01;;;;;;;13.93;10.07;;;6.00;99.90;;;;;;4976461;28;20258;-87
2022/12/22 04:19:29;;;;;;;12.88;9.68;;;6.20;99.90;;;;;;4978718;28;20237;-88
2022/12/22 04:21:56;;;;;;;11.77;9.93;;;6.20;99.90;;;;;;4978948;28;20201;-87
2022/12/22 04:24:23;;;;;;;12.32;9.32;;;6.30;99.90;;;;;;4979286;28;20207;-86
2022/12/22 04:26:51;;;;;;;11.30;8.77;;;5.80;99.90;;;;;;4978890;28;20202;-86
2022/12/22 04:29:18;;;;;;;13.77;11.13;;;5.70;99.90;;;;;;4978424;28;20199;-87
2022/12/22 04:31:45;;;;;;;11.85;10.65;;;5.60;99.90;;;;;;4979378;28;20205;-86
2022/12/22 04:34:12;;;;;;;18.02;11.82;;;5.50;99.90;;;;;;4978751;28;20198;-88
2022/12/22 04:36:39;;;;;;;18.55;14.55;;;5.30;99.90;;;;;;4977902;28;20242;-86
2022/12/22 04:39:06;;;;;;;15.57;12.27;;;5.30;99.90;;;;;;4970511;28;20285;-87
2022/12/22 04:41:33;;;;;;;14.27;11.85;;;5.40;99.90;;;;;;4970103;28;20214;-88
2022/12/22 04:44:00;;;;;;;18.58;13.70;;;5.30;99.90;;;;;;5430935;23;20229;-89
2022/12/22 04:51:52;;;;;;;14.50;12.45;;;5.30;99.90;;;;;;5954426;23;20436;-90
2022/12/22 04:56:55;;;;;;;14.32;12.90;;;5.20;99.90;;;;;;5088689;23;20241;-91
2022/12/22 04:59:22;;;;;;;14.40;11.88;;;5.20;99.90;;;;;;5063957;23;20230;-93
2022/12/22 05:01:49;;;;;;;12.40;11.10;;;5.20;99.90;;;;;;4958244;28;20204;-86
2022/12/22 05:04:17;;;;;;;16.85;13.40;;;5.30;99.90;;;;;;4958315;28;20206;-86
2022/12/22 05:06:49;;;;;;;14.73;13.13;;;5.50;99.90;;;;;;4946291;29;20192;-90
2022/12/22 05:09:16;;;;;;;16.85;12.75;;;5.40;99.90;;;;;;4949301;28;20203;-85
2022/12/22 05:11:43;;;;;;;13.20;11.35;;;5.20;99.90;;;;;;4958281;28;20219;-87
2022/12/22 05:14:10;;;;;;;15.40;13.50;;;5.50;99.90;;;;;;4958116;28;20195;-86
2022/12/22 05:16:37;;;;;;;14.02;11.85;;;5.20;99.90;;;;;;4956857;28;20211;-89
2022/12/22 05:19:04;;;;;;;19.10;14.27;;;5.40;99.90;;;;;;4950278;29;20228;-87
2022/12/22 05:21:32;;;;;;;16.80;15.10;;;5.50;99.90;;;;;;4946993;29;20211;-89
2022/12/22 05:23:59;;;;;;;14.75;13.25;;;5.30;99.90;;;;;;4951306;29;20206;-90
2022/12/22 05:26:26;;;;;;;16.95;13.45;;;5.30;99.90;;;;;;4952128;29;20212;-88
2022/12/22 05:28:54;;;;;;;17.30;15.40;;;5.60;99.90;;;;;;4949909;29;20206;-88
2022/12/22 05:31:23;;;;;;;17.17;14.18;;;5.60;99.90;;;;;;4948023;28;20200;-89
2022/12/22 05:33:51;;;;;;;16.73;13.50;;;5.80;99.90;;;;;;4950504;29;20214;-88
2022/12/22 05:36:18;;;;;;;15.80;14.05;;;5.70;99.90;;;;;;4952203;29;20212;-88
2022/12/22 05:38:46;;;;;;;14.43;12.90;;;5.70;99.90;;;;;;4949920;29;20235;-87
2022/12/22 05:41:14;;;;;;;16.92;13.88;;;5.60;99.90;;;;;;4949014;29;20240;-87
2022/12/22 05:43:41;;;;;;;16.95;12.68;;;5.70;99.90;;;;;;4947492;29;20211;-89
2022/12/22 05:46:11;;;;;;;14.35;12.55;;;5.70;99.90;;;;;;4952107;29;20228;-88
2022/12/22 05:48:38;;;;;;;14.88;12.80;;;5.70;99.90;;;;;;4951801;29;20200;-88
2022/12/22 05:51:07;;;;;;;15.27;13.68;;;6.20;99.90;;;;;;4948100;29;20239;-89
2022/12/22 05:53:37;;;;;;;18.50;15.48;;;6.00;99.90;;;;;;4934336;29;20517;-86
2022/12/22 05:56:05;;;;;;;16.17;13.07;;;6.30;99.90;;;;;;4950635;29;20224;-85
2022/12/22 05:58:37;;;;;;;15.55;13.10;;;6.10;99.90;;;;;;4960317;28;20191;-89
2022/12/22 06:01:11;;;;;;;15.27;13.23;;;6.10;99.90;;;;;;5039726;23;20241;-88
2022/12/22 06:03:40;;;;;;;15.25;13.55;;;6.10;99.90;;;;;;4955568;28;20210;-90
2022/12/22 06:06:14;;;;;;;18.67;12.70;;;6.10;99.90;;;;;;4954295;28;20220;-87
2022/12/22 06:08:45;;;;;;;13.10;11.73;;;6.30;99.90;;;;;;5065516;23;20233;-89
2022/12/22 06:16:24;;;;;;;13.82;12.40;;;6.50;99.90;;;;;;5690844;23;21018;-92
2022/12/22 06:26:51;;;;;;;15.95;12.55;;;6.30;99.90;;;;;;5920004;23;20178;-92
2022/12/22 06:29:18;;;;;;;13.73;12.40;;;6.30;99.90;;;;;;5497710;23;20241;-91
2022/12/22 06:31:45;;;;;;;17.15;13.68;;;6.40;99.90;;;;;;5597587;23;20217;-90
2022/12/22 06:34:12;;;;;;;15.25;13.63;;;6.30;99.90;;;;;;5235193;23;20231;-91
2022/12/22 06:36:39;;;;;;;19.75;13.27;;;6.30;99.90;;;;;;5429477;23;20227;-89
2022/12/22 06:39:07;;;;;;;14.55;11.63;;;6.30;99.90;;;;;;5136349;23;20298;-90
2022/12/22 06:44:20;;;;;;;13.18;11.77;;;6.40;99.90;;;;;;5211761;23;20246;-91
2022/12/22 06:46:47;;;;;;;14.25;12.75;;;6.60;99.90;;;;;;5130665;23;20205;-90
2022/12/22 06:49:29;;;;;;;13.35;11.13;;;6.70;99.90;;;;;;5695488;23;20302;-91
2022/12/22 06:57:06;;;;;;;12.48;11.18;;;6.80;99.90;;;;;;4960900;29;20210;-89
2022/12/22 07:02:11;;;;;;;11.77;10.57;;;6.80;99.90;;;;;;5317157;23;20238;-93
2022/12/22 07:04:39;;;;;;;13.30;11.90;;;6.80;99.90;;;;;;5146403;23;20212;-90
2022/12/22 07:07:06;;;;;;;13.43;11.85;;;6.80;99.90;;;;;;5012133;23;20230;-89
2022/12/22 07:09:33;;;;;;;13.35;12.00;;;7.00;99.90;;;;;;5384366;23;20227;-92
2022/12/22 07:20:00;;;;;;;11.88;10.68;;;6.80;99.90;;;;;;4972456;23;20315;-89
2022/12/22 07:33:34;;;;;;;13.65;10.65;;;6.80;99.90;;;;;;4122410;23;20390;-82
2022/12/22 07:36:10;;;;;;;15.38;11.65;;;6.90;99.90;;;;;;5547883;23;20231;-89
2022/12/22 07:38:39;;;;;;;13.90;12.45;;;7.00;99.90;;;;;;4940493;29;20686;-90
2022/12/22 07:42:43;;;;;;;13.52;11.93;;;7.00;99.90;;;;;;4947905;29;20527;-90
2022/12/22 07:43:57;;;;;;;14.07;12.27;;;7.00;99.90;;;;;;4941124;29;20216;-90
2022/12/22 07:46:26;;;;;;;15.20;13.15;;;7.10;99.90;;;;;;5045973;23;20282;-90
2022/12/22 07:57:04;;;;;;;15.73;13.00;;;7.10;99.90;;;;;;5252956;23;20295;-90
2022/12/22 07:59:31;;;;;;;18.45;14.32;;;7.10;99.90;;;;;;5225951;23;20233;-89
2022/12/22 08:04:40;;;;;;;22.23;17.30;;;7.00;99.90;;;;;;5227168;23;20470;-90
2022/12/22 08:09:43;;;;;;;35.58;22.75;;;7.10;99.90;;;;;;5264707;23;20255;-90
2022/12/22 08:12:10;;;;;;;34.97;24.23;;;7.20;99.90;;;;;;5479674;23;20238;-90
2022/12/22 08:19:47;;;;;;;31.17;16.50;;;7.50;99.90;;;;;;5873186;23;20186;-90
2022/12/22 08:24:47;;;;;;;22.58;14.52;;;7.60;99.90;;;;;;5109792;23;20213;-88
2022/12/22 08:59:46;;;;;;;25.77;15.73;;;8.30;99.90;;;;;;5961351;23;20697;-90
2022/12/22 09:07:31;;;;;;;17.05;11.32;;;8.90;99.90;;;;;;5441161;23;20335;-89
2022/12/22 09:25:58;;;;;;;20.10;12.68;;;9.10;99.90;;;;;;6008584;23;21386;-90
2022/12/22 09:31:17;;;;;;;13.68;10.90;;;9.20;99.90;;;;;;5325577;23;20276;-90
2022/12/22 10:04:20;;;;;;;20.95;14.68;;;8.80;99.90;;;;;;5938138;23;20512;-90
2022/12/22 10:20:20;;;;;;;18.30;12.45;;;9.40;99.90;;;;;;5369374;23;20232;-90
2022/12/22 10:22:58;;;;;;;10.45;8.90;;;9.40;99.90;;;;;;4962485;29;20190;-89
2022/12/22 10:49:50;;;;;;;14.13;10.07;;;9.10;99.90;;;;;;4947903;29;20211;-86
2022/12/22 10:52:24;;;;;;;13.50;9.80;;;9.00;99.90;;;;;;4948247;29;20205;-87
2022/12/22 10:55:28;;;;;;;16.23;10.70;;;9.40;99.90;;;;;;4942112;29;20224;-84
2022/12/22 10:58:18;;;;;;;10.65;9.55;;;8.80;99.90;;;;;;4949722;29;20396;-85
2022/12/22 11:01:09;;;;;;;13.38;9.10;;;8.80;99.90;;;;;;4940359;29;20221;-86
2022/12/22 11:03:41;;;;;;;19.08;12.18;;;8.90;99.90;;;;;;4949089;29;20207;-85
2022/12/22 11:06:22;;;;;;;12.23;9.15;;;9.20;99.90;;;;;;4946874;29;20343;-85
2022/12/22 11:08:51;;;;;;;11.73;9.80;;;9.30;99.90;;;;;;4954682;29;20211;-87
2022/12/22 11:12:11;;;;;;;12.32;10.50;;;9.20;99.90;;;;;;4979562;28;20197;-82
2022/12/22 11:15:22;;;;;;;10.75;8.85;;;8.90;99.90;;;;;;4979005;28;20190;-88
2022/12/22 11:18:36;;;;;;;9.38;8.40;;;8.80;99.90;;;;;;4979829;28;20200;-87
2022/12/22 11:29:04;;;;;;;14.77;11.57;;;8.90;99.90;;;;;;4933096;29;20239;-85
2022/12/22 11:32:04;;;;;;;15.23;10.52;;;8.80;99.90;;;;;;4941025;29;20387;-85
2022/12/22 11:35:01;;;;;;;13.20;9.95;;;8.60;99.90;;;;;;4934285;29;20204;-85
2022/12/22 11:37:44;;;;;;;11.30;9.90;;;8.60;99.90;;;;;;4950166;29;20199;-87
2022/12/22 11:40:48;;;;;;;12.43;8.85;;;8.50;99.90;;;;;;4934843;29;20214;-83
2022/12/22 11:43:58;;;;;;;13.48;10.43;;;8.40;99.90;;;;;;4943975;29;20208;-84
2022/12/22 11:46:56;;;;;;;13.73;10.40;;;8.30;99.90;;;;;;4959826;29;20202;-85
2022/12/22 11:49:25;;;;;;;15.18;11.40;;;8.40;99.90;;;;;;4956344;29;20276;-84
2022/12/22 11:52:28;;;;;;;17.48;11.88;;;8.40;99.90;;;;;;4960069;28;20197;-84
2022/12/22 11:55:28;;;;;;;11.20;10.07;;;8.50;99.90;;;;;;4958342;28;20186;-84
2022/12/22 11:58:18;;;;;;;12.75;9.32;;;8.60;99.90;;;;;;4960351;28;20198;-87
2022/12/22 12:01:03;;;;;;;13.73;10.07;;;8.80;99.90;;;;;;4959694;28;20225;-84
2022/12/22 12:04:16;;;;;;;11.82;9.55;;;8.90;99.90;;;;;;4959913;28;20228;-84
2022/12/22 12:06:55;;;;;;;16.77;11.80;;;9.10;99.90;;;;;;4952829;29;20210;-88
2022/12/22 12:09:31;;;;;;;16.25;11.40;;;9.10;99.90;;;;;;4951481;29;20228;-84
2022/12/22 12:16:18;;;;;;;12.73;9.93;;;9.40;99.90;;;;;;4934167;29;20219;-84
2022/12/22 12:19:09;;;;;;;8.80;7.95;;;9.30;99.90;;;;;;4932379;29;20276;-84
2022/12/22 12:21:57;;;;;;;10.77;8.77;;;8.90;99.90;;;;;;4944566;29;20232;-85
2022/12/22 12:24:28;;;;;;;10.40;9.32;;;;;;;;;;4952458;29;20224;-84
2022/12/22 12:27:42;;;;;;;8.77;7.78;;;9.20;99.90;;;;;;4976575;28;20461;-84
2022/12/22 12:30:15;;;;;;;13.20;9.50;;;9.00;99.90;;;;;;4960631;28;20238;-84
2022/12/22 12:33:42;;;;;;;12.98;9.95;;;10.20;99.90;;;;;;4957109;28;20204;-85
2022/12/22 12:36:23;;;;;;;12.75;11.23;;;9.20;99.90;;;;;;4958963;28;20220;-85
2022/12/22 12:39:03;;;;;;;13.27;11.50;;;9.20;99.90;;;;;;4973626;28;20213;-88
2022/12/22 12:41:49;;;;;;;14.20;10.20;;;9.10;99.90;;;;;;4952036;28;20236;-85
2022/12/22 12:44:21;;;;;;;10.32;9.23;;;9.10;99.90;;;;;;4961204;28;20205;-84
2022/12/22 12:47:06;;;;;;;13.05;9.55;;;9.00;99.90;;;;;;4958495;29;20228;-86
2022/12/22 12:49:34;;;;;;;10.00;9.00;;;9.20;99.90;;;;;;4953388;29;20214;-85
2022/12/22 12:52:09;;;;;;;13.60;8.75;;;8.90;99.90;;;;;;4947751;29;20222;-85
2022/12/22 12:54:41;;;;;;;7.20;5.78;;;9.50;99.90;;;;;;4950618;29;20220;-85
2022/12/22 12:57:43;;;;;;;9.45;7.30;;;9.50;99.90;;;;;;4937718;29;20266;-87
2022/12/22 13:00:33;;;;;;;6.93;5.35;;;9.60;99.90;;;;;;4938912;29;20217;-84
2022/12/22 13:03:30;;;;;;;5.95;5.35;;;9.60;99.90;;;;;;4955139;29;20201;-86
2022/12/22 13:06:45;;;;;;;6.10;5.50;;;9.70;99.90;;;;;;4960010;28;20205;-83
2022/12/22 13:09:22;;;;;;;7.35;6.50;;;9.90;99.90;;;;;;4960739;28;20233;-87
2022/12/22 13:16:02;;;;;;;8.88;6.43;;;10.20;99.90;;;;;;4958411;29;20240;-87
2022/12/22 13:22:17;;;;;;;9.93;6.90;;;10.00;99.90;;;;;;4958322;29;20526;-85
2022/12/22 13:24:44;;;;;;;6.95;6.22;;;9.90;99.90;;;;;;4936831;29;20211;-87
2022/12/22 13:27:31;;;;;;;7.63;6.20;;;10.10;99.90;;;;;;4933384;29;20222;-86
2022/12/22 13:30:04;;;;;;;15.52;10.23;;;10.00;99.90;;;;;;4935665;29;20203;-88
2022/12/22 13:36:28;;;;;;;10.35;8.13;;;9.90;99.90;;;;;;4939296;29;20166;-87
2022/12/22 13:39:04;;;;;;;12.55;8.77;;;9.90;99.90;;;;;;4944903;28;20267;-88
2022/12/22 13:41:39;;;;;;;12.68;8.85;;;9.80;99.90;;;;;;4954087;29;20217;-86
2022/12/22 13:44:12;;;;;;;9.02;7.90;;;9.80;99.90;;;;;;4972562;29;20207;-85
2022/12/22 13:46:41;;;;;;;11.20;8.82;;;9.60;99.90;;;;;;4980403;28;20190;-85
2022/12/22 13:49:21;;;;;;;19.13;16.67;;;9.60;99.90;;;;;;4980629;28;20206;-85
2022/12/22 13:52:17;;;;;;;12.82;9.05;;;9.40;99.90;;;;;;4975721;28;20206;-85
2022/12/22 13:54:44;;;;;;;21.60;12.65;;;9.30;99.90;;;;;;4970975;29;20209;-87
2022/12/22 13:57:20;;;;;;;11.45;9.93;;;9.30;99.90;;;;;;4963237;28;20434;-87
2022/12/22 13:59:53;;;;;;;9.38;8.48;;;9.20;99.90;;;;;;4966573;29;20224;-85
2022/12/22 14:02:21;;;;;;;10.80;8.68;;;9.10;99.90;;;;;;4942431;29;20260;-87
2022/12/22 15:44:57;;;;;;;13.48;8.50;;;9.30;99.90;;;;;;4957682;28;20226;-91
2022/12/22 15:47:24;;;;;;;15.30;9.00;;;9.30;99.90;;;;;;4963853;28;20186;-91
2022/12/22 15:52:47;;;;;;;16.95;12.35;;;9.60;99.90;;;;;;4962337;28;20236;-86
2022/12/22 15:55:15;;;;;;;10.63;7.45;;;9.60;99.90;;;;;;4947407;28;20199;-84
2022/12/22 15:57:50;;;;;;;10.02;7.80;;;9.40;99.90;;;;;;4955090;28;20189;-88
2022/12/22 16:00:19;;;;;;;13.15;8.20;;;9.30;99.90;;;;;;4943324;28;20209;-87
2022/12/22 16:03:22;;;;;;;10.98;8.85;;;9.30;99.90;;;;;;4957525;28;20224;-88
2022/12/22 16:05:51;;;;;;;13.93;10.68;;;9.20;99.90;;;;;;4956523;29;20217;-88
2022/12/22 16:08:36;;;;;;;11.75;8.43;;;9.20;99.90;;;;;;4954419;29;20232;-86
2022/12/22 16:11:06;;;;;;;8.13;7.38;;;9.20;99.90;;;;;;4949515;29;20252;-86
2022/12/22 16:14:01;;;;;;;10.55;8.63;;;9.20;99.90;;;;;;4953220;29;20216;-88
2022/12/22 16:16:29;;;;;;;8.68;7.68;;;9.20;99.90;;;;;;4969838;29;20189;-88
2022/12/22 16:18:56;;;;;;;9.68;8.60;;;9.20;99.90;;;;;;4970964;29;20469;-87
2022/12/22 16:28:46;;;;;;;13.02;8.65;;;9.50;99.90;;;;;;4978635;28;20269;-88
2022/12/22 16:31:19;;;;;;;13.40;10.25;;;9.40;99.90;;;;;;4964160;28;20201;-85
2022/12/22 16:33:47;;;;;;;8.95;8.13;;;9.40;99.90;;;;;;4949147;29;20194;-87
2022/12/22 16:36:14;;;;;;;9.23;7.30;;;9.40;99.90;;;;;;4947428;29;20269;-88
2022/12/22 16:38:44;;;;;;;10.55;7.45;;;9.60;99.90;;;;;;4943216;29;20236;-87
2022/12/22 16:41:23;;;;;;;15.05;8.60;;;9.40;99.90;;;;;;4953804;29;20223;-87
2022/12/22 16:43:54;;;;;;;7.68;6.93;;;9.30;99.90;;;;;;4954884;29;20213;-88
2022/12/22 16:46:36;;;;;;;9.77;8.02;;;9.40;99.90;;;;;;4919587;29;20222;-87
2022/12/22 16:52:55;;;;;;;10.63;7.15;;;9.60;99.90;;;;;;4936698;29;20261;-87
2022/12/22 16:55:22;;;;;;;11.07;8.27;;;9.90;99.90;;;;;;4929800;29;20240;-87
2022/12/22 16:57:49;;;;;;;11.43;8.43;;;9.60;99.90;;;;;;4930358;29;20217;-87
2022/12/22 17:00:29;;;;;;;9.15;6.90;;;9.60;99.90;;;;;;4913261;29;20195;-90
2022/12/22 17:03:01;;;;;;;7.07;6.25;;;9.50;99.90;;;;;;4930882;29;20195;-87
2022/12/22 17:05:41;;;;;;;6.25;5.75;;;9.50;99.90;;;;;;4943907;29;20268;-87
2022/12/22 17:08:23;;;;;;;7.30;6.60;;;9.30;99.90;;;;;;4951581;29;20254;-88
2022/12/22 17:10:51;;;;;;;8.13;6.43;;;9.30;99.90;;;;;;4957869;28;20198;-88
2022/12/22 17:13:19;;;;;;;7.75;6.95;;;9.40;99.90;;;;;;4957292;28;20197;-87
2022/12/22 17:15:49;;;;;;;8.60;6.82;;;9.40;99.90;;;;;;4958350;28;20218;-88
2022/12/22 17:18:20;;;;;;;9.45;6.43;;;9.50;99.90;;;;;;4954686;28;20254;-86
2022/12/22 17:20:53;;;;;;;8.82;7.50;;;9.30;99.90;;;;;;4954047;28;20237;-87
2022/12/22 17:23:37;;;;;;;6.03;5.30;;;9.50;99.90;;;;;;4966227;28;20205;-86
2022/12/22 17:26:49;;;;;;;9.32;8.25;;;9.50;99.90;;;;;;4978364;28;20249;-87
2022/12/22 17:29:23;;;;;;;9.98;7.90;;;9.70;99.90;;;;;;4970173;28;20216;-86
2022/12/22 17:31:54;;;;;;;8.90;6.85;;;9.70;99.90;;;;;;4969052;29;20269;-87
2022/12/22 17:34:25;;;;;;;7.03;6.25;;;9.60;99.90;;;;;;4937765;29;20265;-87
2022/12/22 17:36:55;;;;;;;5.50;4.93;;;9.50;99.90;;;;;;4951421;29;20257;-89
2022/12/22 17:39:22;;;;;;;7.88;6.38;;;9.50;99.90;;;;;;4965089;29;20223;-88
2022/12/22 17:41:50;;;;;;;7.45;5.65;;;9.60;99.90;;;;;;4970182;28;20254;-88
2022/12/22 17:44:50;;;;;;;7.50;6.72;;;9.60;99.90;;;;;;4968261;29;20273;-87
2022/12/22 17:47:21;;;;;;;7.10;5.55;;;9.70;99.90;;;;;;4969402;28;20211;-88
2022/12/22 17:49:58;;;;;;;7.10;5.80;;;9.90;99.90;;;;;;4969113;29;20269;-86
2022/12/22 17:52:26;;;;;;;7.22;6.53;;;10.00;99.90;;;;;;4960355;28;20292;-88
2022/12/22 17:55:00;;;;;;;6.30;4.93;;;9.80;99.90;;;;;;4962301;29;20197;-87
2022/12/22 17:58:23;;;;;;;5.30;4.60;;;9.70;99.90;;;;;;4960850;28;20202;-86
2022/12/22 18:00:53;;;;;;;8.88;7.00;;;9.50;99.90;;;;;;4946186;29;20216;-87
2022/12/22 18:03:20;;;;;;;8.73;6.72;;;9.60;99.90;;;;;;4966111;29;20206;-87
2022/12/22 18:05:48;;;;;;;7.38;6.28;;;9.50;99.90;;;;;;4951516;29;20205;-85
2022/12/22 18:08:18;;;;;;;5.70;5.10;;;9.50;99.90;;;;;;4960353;29;20235;-88
2022/12/22 18:10:46;;;;;;;8.27;6.53;;;9.50;99.90;;;;;;4953717;28;20212;-90
2022/12/22 18:13:17;;;;;;;6.57;5.80;;;9.40;99.90;;;;;;4945188;29;20206;-88
2022/12/22 18:15:44;;;;;;;8.20;5.85;;;9.50;99.90;;;;;;4938760;29;20200;-87
2022/12/22 18:18:14;;;;;;;6.93;5.57;;;9.70;99.90;;;;;;4939681;29;20207;-86
2022/12/22 18:20:42;;;;;;;8.48;6.07;;;9.60;99.90;;;;;;4937653;29;20282;-87
2022/12/22 18:23:15;;;;;;;6.75;6.15;;;9.60;99.90;;;;;;4951136;29;20233;-88
2022/12/22 18:25:42;;;;;;;8.63;6.57;;;9.50;99.90;;;;;;4942875;29;20199;-86
2022/12/22 18:28:15;;;;;;;9.88;6.47;;;9.60;99.90;;;;;;4948287;29;20279;-85
2022/12/22 18:30:42;;;;;;;6.97;5.95;;;9.50;99.90;;;;;;4941350;29;20237;-83
2022/12/22 18:33:10;;;;;;;7.40;5.90;;;9.50;99.90;;;;;;4959540;28;20211;-86
2022/12/22 18:35:38;;;;;;;8.40;6.78;;;9.40;99.90;;;;;;4956070;28;20203;-84
2022/12/22 18:38:05;;;;;;;9.55;7.53;;;9.50;99.90;;;;;;4937015;29;20505;-87
2022/12/22 18:40:38;;;;;;;9.15;6.70;;;9.30;99.90;;;;;;4931095;29;20214;-85
2022/12/22 18:43:11;;;;;;;7.45;6.25;;;9.40;99.90;;;;;;4946951;29;20222;-86
2022/12/22 18:45:39;;;;;;;11.40;7.85;;;9.50;99.90;;;;;;4930892;29;20210;-86
2022/12/22 18:48:05;;;;;;;9.65;7.45;;;9.50;99.90;;;;;;4934783;29;20262;-85
2022/12/22 18:50:33;;;;;;;8.02;7.22;;;9.30;99.90;;;;;;4935822;29;20211;-85
2022/12/22 18:53:29;;;;;;;12.13;8.35;;;9.20;99.90;;;;;;4952806;28;20214;-87
2022/12/22 18:55:57;;;;;;;9.05;7.72;;;9.20;99.90;;;;;;4960733;29;20197;-85
2022/12/22 18:58:24;;;;;;;9.50;8.07;;;9.20;99.90;;;;;;4948473;29;20313;-86
2022/12/22 19:00:53;;;;;;;12.32;9.95;;;9.20;99.90;;;;;;4947335;29;20212;-85
2022/12/22 19:03:27;;;;;;;9.90;8.23;;;9.30;99.90;;;;;;4947122;29;20223;-84
2022/12/22 19:05:55;;;;;;;11.93;9.80;;;9.30;99.90;;;;;;4952603;29;20271;-84
2022/12/22 19:08:26;;;;;;;12.88;8.57;;;9.20;99.90;;;;;;4967876;28;20236;-89
2022/12/22 19:11:05;;;;;;;10.90;8.88;;;9.40;99.90;;;;;;4948834;29;20205;-85
2022/12/22 19:13:38;;;;;;;13.02;9.18;;;9.40;99.90;;;;;;4950426;29;20200;-87
2022/12/22 19:19:55;;;;;;;10.77;8.45;;;9.30;99.90;;;;;;4962248;29;20217;-84
2022/12/22 19:22:22;;;;;;;10.48;9.40;;;9.20;99.90;;;;;;4968796;28;20409;-86
2022/12/22 19:24:50;;;;;;;8.10;7.28;;;9.10;99.90;;;;;;4956463;28;20202;-85
2022/12/22 19:27:23;;;;;;;8.50;7.18;;;8.90;99.90;;;;;;4964349;29;20516;-85
2022/12/22 19:30:38;;;;;;;9.27;7.78;;;8.90;99.90;;;;;;4967591;29;20233;-84
2022/12/22 19:33:13;;;;;;;14.73;9.93;;;8.70;99.90;;;;;;4941802;29;20193;-84
2022/12/22 19:35:40;;;;;;;6.55;5.93;;;8.80;99.90;;;;;;4969746;28;20189;-85
2022/12/22 19:38:24;;;;;;;8.95;7.15;;;8.80;99.90;;;;;;4961116;29;20205;-86
2022/12/22 19:40:56;;;;;;;8.70;7.13;;;8.70;99.90;;;;;;4947775;29;20210;-85
2022/12/22 19:43:24;;;;;;;9.48;7.45;;;8.70;99.90;;;;;;4948008;29;20339;-86
2022/12/22 19:45:52;;;;;;;7.72;7.03;;;8.70;99.90;;;;;;4969156;28;20356;-84
2022/12/22 19:48:22;;;;;;;8.40;7.55;;;8.90;99.90;;;;;;4968950;28;20199;-84
2022/12/22 19:51:01;;;;;;;10.73;8.57;;;8.90;99.90;;;;;;4964833;29;20256;-84
2022/12/22 19:53:31;;;;;;;7.50;6.70;;;9.00;99.90;;;;;;4962228;29;20533;-85
2022/12/22 19:59:52;;;;;;;8.65;6.60;;;9.00;99.90;;;;;;4931160;29;20166;-84
2022/12/22 20:02:32;;;;;;;9.35;6.88;;;9.10;99.90;;;;;;4959306;28;20236;-86
2022/12/22 20:05:01;;;;;;;6.55;5.90;;;9.10;99.90;;;;;;4949688;29;20234;-85
2022/12/22 20:07:47;;;;;;;8.80;6.20;;;9.00;99.90;;;;;;4950255;29;20505;-85
2022/12/22 20:10:16;;;;;;;7.68;5.97;;;9.20;99.90;;;;;;4926646;29;20614;-86
2022/12/22 20:12:46;;;;;;;6.97;5.85;;;9.10;99.90;;;;;;4926659;29;20214;-84
2022/12/22 20:15:22;;;;;;;6.63;5.72;;;9.10;99.90;;;;;;4926736;29;20251;-84
2022/12/22 20:17:56;;;;;;;9.38;5.20;;;9.00;99.90;;;;;;4889981;29;20211;-84
2022/12/22 20:24:30;;;;;;;6.50;5.82;;;9.00;99.90;;;;;;4802082;29;20497;-86
2022/12/22 20:27:03;;;;;;;6.35;5.85;;;9.00;99.90;;;;;;4803281;29;20222;-83
2022/12/22 20:29:30;;;;;;;7.47;6.72;;;9.00;99.90;;;;;;4870279;29;20277;-84
2022/12/22 20:32:03;;;;;;;7.13;6.35;;;9.10;99.90;;;;;;4874721;29;20252;-86
2022/12/22 20:34:36;;;;;;;10.23;6.75;;;9.10;99.90;;;;;;4846753;29;20207;-87
2022/12/22 20:41:11;;;;;;;8.60;7.70;;;9.00;99.90;;;;;;4876291;29;20303;-84
2022/12/22 20:43:53;;;;;;;12.50;8.45;;;8.80;99.90;;;;;;4797421;29;20213;-84
2022/12/22 20:46:30;;;;;;;9.43;7.80;;;8.70;99.90;;;;;;4867702;29;20244;-85
2022/12/22 20:52:39;;;;;;;9.23;8.10;;;8.60;99.90;;;;;;4873375;29;20268;-88
2022/12/22 20:55:12;;;;;;;10.35;8.77;;;8.70;99.90;;;;;;4874026;29;20212;-85
2022/12/22 20:57:40;;;;;;;13.10;8.30;;;8.80;99.90;;;;;;4873690;29;20401;-85
2022/12/22 21:00:26;;;;;;;11.93;9.65;;;8.80;99.90;;;;;;4867680;29;20219;-86
2022/12/22 21:02:54;;;;;;;11.90;9.15;;;8.80;99.90;;;;;;4934878;29;20291;-88
2022/12/22 21:05:22;;;;;;;11.63;10.38;;;8.90;99.90;;;;;;4938182;28;20258;-87
2022/12/22 21:07:51;;;;;;;10.10;9.20;;;8.90;99.90;;;;;;4957931;28;20230;-84
2022/12/22 21:10:22;;;;;;;9.63;8.73;;;8.90;99.90;;;;;;5015753;28;20199;-89
2022/12/22 21:12:49;;;;;;;12.70;10.65;;;8.80;99.90;;;;;;5005970;28;20217;-89
2022/12/22 21:15:25;;;;;;;11.80;9.32;;;8.80;99.90;;;;;;5001945;28;20198;-88
2022/12/22 21:17:52;;;;;;;11.75;10.52;;;8.80;99.90;;;;;;4989985;28;20193;-90
2022/12/22 21:20:26;;;;;;;16.40;10.90;;;8.80;99.90;;;;;;5001600;28;20226;-90
2022/12/22 21:23:00;;;;;;;16.35;12.43;;;8.80;99.90;;;;;;5014380;28;20545;-87
2022/12/22 21:25:27;;;;;;;13.95;12.07;;;8.80;99.90;;;;;;5019512;28;20517;-86
2022/12/22 21:27:55;;;;;;;14.75;13.20;;;8.80;99.90;;;;;;5021751;28;20213;-85
2022/12/22 21:30:26;;;;;;;15.40;13.15;;;8.80;99.90;;;;;;5019355;28;20190;-83
2022/12/22 21:33:19;;;;;;;15.00;12.98;;;8.80;99.90;;;;;;5019967;28;20196;-84
2022/12/22 21:35:52;;;;;;;20.05;12.90;;;8.80;99.90;;;;;;5018308;28;20219;-84
2022/12/22 21:38:26;;;;;;;15.70;13.68;;;8.80;99.90;;;;;;5016774;28;20259;-86
2022/12/22 21:41:07;;;;;;;15.75;14.15;;;8.80;99.90;;;;;;5003256;28;20279;-90
2022/12/22 21:43:48;;;;;;;15.88;13.82;;;8.90;99.90;;;;;;5004603;28;20247;-86
2022/12/22 21:46:19;;;;;;;19.67;13.25;;;9.00;99.90;;;;;;5001144;28;20207;-84
2022/12/22 21:48:48;;;;;;;14.77;13.00;;;9.00;99.90;;;;;;5015723;28;20244;-85
2022/12/22 21:51:49;;;;;;;16.80;14.57;;;8.90;99.90;;;;;;5008796;28;20212;-84
2022/12/22 21:54:22;;;;;;;14.70;13.20;;;8.90;99.90;;;;;;5005258;28;20218;-82
2022/12/22 21:56:54;;;;;;;15.20;12.10;;;8.90;99.90;;;;;;5011545;28;20256;-84
2022/12/22 21:59:35;;;;;;;14.73;12.68;;;8.80;99.90;;;;;;5010019;28;20203;-85
2022/12/22 22:02:22;;;;;;;13.77;12.45;;;8.70;99.90;;;;;;5011657;28;20264;-82
2022/12/22 22:04:55;;;;;;;13.82;12.40;;;8.60;99.90;;;;;;5003204;28;20237;-85
2022/12/22 22:07:41;;;;;;;12.95;11.65;;;8.60;99.90;;;;;;5009632;28;20206;-86
2022/12/22 22:10:29;;;;;;;12.07;10.82;;;8.60;99.90;;;;;;5010206;28;20238;-86
2022/12/22 22:13:16;;;;;;;14.88;12.23;;;8.40;99.90;;;;;;4998302;28;20219;-84
2022/12/22 22:15:49;;;;;;;14.07;12.65;;;8.40;99.90;;;;;;4978049;28;20307;-85
2022/12/22 22:18:22;;;;;;;16.85;12.10;;;8.40;99.90;;;;;;5028795;28;20458;-85
2022/12/22 22:20:50;;;;;;;14.82;12.48;;;8.40;99.90;;;;;;5005310;28;20198;-85
2022/12/22 22:23:20;;;;;;;15.90;13.55;;;8.60;99.90;;;;;;5029714;28;20281;-85
2022/12/22 22:25:56;;;;;;;17.98;15.18;;;8.70;99.90;;;;;;5010559;28;20218;-84
2022/12/22 22:28:26;;;;;;;19.15;15.25;;;8.90;99.90;;;;;;5007615;28;20195;-85
2022/12/22 22:30:57;;;;;;;15.48;13.25;;;9.00;99.90;;;;;;5021822;28;20211;-85
2022/12/22 22:33:26;;;;;;;15.48;13.02;;;9.10;99.90;;;;;;5025117;28;20624;-84
2022/12/22 22:35:54;;;;;;;12.32;11.10;;;8.80;99.90;;;;;;5011031;28;20211;-83
2022/12/22 22:38:29;;;;;;;12.02;10.82;;;8.80;99.90;;;;;;5011431;28;20215;-88
2022/12/22 22:41:27;;;;;;;12.32;10.70;;;8.80;99.90;;;;;;5019377;28;20210;-86
2022/12/22 22:44:12;;;;;;;11.02;9.35;;;8.70;99.90;;;;;;5018580;28;20227;-86
2022/12/22 22:46:47;;;;;;;11.85;9.70;;;8.80;99.90;;;;;;4991400;28;20210;-88
2022/12/22 22:49:27;;;;;;;10.40;9.40;;;8.70;99.90;;;;;;4994917;28;20551;-82
2022/12/22 22:52:11;;;;;;;11.15;9.35;;;8.80;99.90;;;;;;5013163;28;20222;-85